Time;durP1;ratioP1;P1;durP2;ratioP2;P2;SDS_P1;SDS_P2;PMS_P1;PMS_P2;Temp;Humidity;BMP_temperature;BMP_pressure;BME280_temperature;BME280_humidity;BME280_pressure;Samples;Min_cycle;Max_cycle;Signal;HPM_P1;HPM_P2
2022/03/11 00:01:47;;;;;;;3.63;2.53;;;;;;;;;;5010872;28;20401;-77
2022/03/11 00:04:13;;;;;;;3.47;2.28;;;;;;;;;;5010746;28;20046;-77
2022/03/11 00:06:39;;;;;;;3.40;2.15;;;;;;;;;;4994029;28;20046;-77
2022/03/11 00:09:04;;;;;;;3.08;1.90;;;;;;;;;;4994259;28;20065;-77
2022/03/11 00:11:30;;;;;;;3.38;2.10;;;;;;;;;;5010734;28;20128;-77
2022/03/11 00:13:56;;;;;;;3.53;2.30;;;;;;;;;;4994609;28;20038;-77
2022/03/11 00:16:22;;;;;;;3.58;2.25;;;;;;;;;;5020040;28;20061;-77
2022/03/11 00:18:48;;;;;;;4.38;2.30;;;;;;;;;;4981598;28;20105;-77
2022/03/11 00:21:14;;;;;;;3.15;1.80;;;;;;;;;;5007230;28;20048;-77
2022/03/11 00:23:42;;;;;;;3.30;2.25;;;;;;;;;;5026808;28;20033;-77
2022/03/11 00:26:07;;;;;;;3.03;2.05;;;;;;;;;;4994522;28;20037;-78
2022/03/11 00:28:33;;;;;;;3.78;2.17;;;;;;;;;;5027044;28;20117;-77
2022/03/11 00:30:58;;;;;;;2.75;1.73;;;;;;;;;;5010455;28;20496;-77
2022/03/11 00:33:24;;;;;;;3.05;1.80;;;;;;;;;;5026923;28;20038;-77
2022/03/11 00:35:49;;;;;;;2.97;1.98;;;;;;;;;;4993367;28;20042;-77
2022/03/11 00:38:15;;;;;;;3.47;1.80;;;;;;;;;;4993788;28;20034;-77
2022/03/11 00:40:40;;;;;;;4.53;2.25;;;;;;;;;;4994151;28;20042;-77
2022/03/11 00:43:05;;;;;;;3.28;2.25;;;;;;;;;;5010593;28;20038;-77
2022/03/11 00:45:31;;;;;;;2.80;1.70;;;;;;;;;;5010196;28;20050;-77
2022/03/11 00:47:56;;;;;;;2.58;1.95;;;;;;;;;;5009381;28;20049;-77
2022/03/11 00:50:22;;;;;;;2.85;2.10;;;;;;;;;;4977522;28;20038;-77
2022/03/11 00:52:48;;;;;;;3.00;2.17;;;;;;;;;;5010064;28;20045;-77
2022/03/11 00:55:13;;;;;;;2.90;1.83;;;;;;;;;;5011499;28;20046;-77
2022/03/11 00:57:39;;;;;;;2.78;1.60;;;;;;;;;;5010503;28;20030;-77
2022/03/11 01:00:07;;;;;;;2.85;1.58;;;;;;;;;;4974634;28;20034;-77
2022/03/11 01:02:36;;;;;;;4.32;1.92;;;;;;;;;;4994244;28;20031;-77
2022/03/11 01:05:05;;;;;;;2.85;1.98;;;;;;;;;;4989969;28;20034;-77
2022/03/11 01:07:31;;;;;;;2.88;1.80;;;;;;;;;;4976684;28;20416;-77
2022/03/11 01:09:57;;;;;;;3.40;2.28;;;;;;;;;;5023478;28;20046;-77
2022/03/11 01:12:22;;;;;;;3.60;2.10;;;;;;;;;;4991073;28;20045;-77
2022/03/11 01:14:47;;;;;;;3.03;1.70;;;;;;;;;;4976661;28;20056;-77
2022/03/11 01:17:13;;;;;;;2.55;1.55;;;;;;;;;;5023090;28;20386;-77
2022/03/11 01:19:39;;;;;;;3.17;1.88;;;;;;;;;;5023227;28;20524;-77
2022/03/11 01:22:04;;;;;;;2.97;2.00;;;;;;;;;;4990659;28;20124;-77
2022/03/11 01:24:30;;;;;;;2.85;1.85;;;;;;;;;;5008247;28;20048;-77
2022/03/11 01:26:55;;;;;;;3.47;1.90;;;;;;;;;;4993860;28;20136;-77
2022/03/11 01:29:21;;;;;;;2.97;1.80;;;;;;;;;;5012143;28;20124;-76
2022/03/11 01:31:46;;;;;;;3.55;2.20;;;;;;;;;;5013331;28;20567;-77
2022/03/11 01:34:12;;;;;;;2.97;1.70;;;;;;;;;;4990579;28;20163;-77
2022/03/11 01:36:38;;;;;;;2.92;1.73;;;;;;;;;;4992803;28;20073;-77
2022/03/11 01:39:03;;;;;;;3.50;1.90;;;;;;;;;;4977696;28;20528;-77
2022/03/11 01:41:29;;;;;;;3.60;1.42;;;;;;;;;;5012998;28;20037;-77
2022/03/11 01:44:01;;;;;;;3.15;1.80;;;;;;;;;;4996691;28;20416;-77
2022/03/11 01:46:28;;;;;;;2.95;1.80;;;;;;;;;;5029784;28;20038;-77
2022/03/11 01:48:54;;;;;;;2.63;1.80;;;;;;;;;;4996731;28;20040;-77
2022/03/11 01:51:19;;;;;;;2.95;1.65;;;;;;;;;;5013189;28;20037;-77
2022/03/11 01:53:45;;;;;;;3.47;2.05;;;;;;;;;;5013658;28;20120;-77
2022/03/11 01:56:10;;;;;;;2.55;1.80;;;;;;;;;;4996967;28;20033;-77
2022/03/11 01:58:36;;;;;;;3.20;1.90;;;;;;;;;;4993689;28;20497;-77
2022/03/11 02:01:02;;;;;;;2.38;1.50;;;;;;;;;;4993452;28;20117;-77
2022/03/11 02:03:28;;;;;;;2.78;1.85;;;;;;;;;;5014595;28;20049;-77
2022/03/11 02:05:53;;;;;;;2.78;2.00;;;;;;;;;;4996583;28;20030;-77
2022/03/11 02:08:19;;;;;;;3.03;2.13;;;;;;;;;;5012810;28;20038;-77
2022/03/11 02:10:44;;;;;;;3.17;1.80;;;;;;;;;;5013322;28;20117;-77
2022/03/11 02:13:09;;;;;;;2.90;1.58;;;;;;;;;;5012587;28;20046;-77
2022/03/11 02:15:35;;;;;;;2.75;1.95;;;;;;;;;;4995714;28;20412;-77
2022/03/11 02:18:00;;;;;;;2.58;1.50;;;;;;;;;;5012151;28;20038;-77
2022/03/11 02:20:25;;;;;;;2.35;1.50;;;;;;;;;;4996422;28;20058;-77
2022/03/11 02:22:52;;;;;;;2.28;1.60;;;;;;;;;;5012449;28;20041;-77
2022/03/11 02:25:17;;;;;;;2.90;1.52;;;;;;;;;;4996293;28;20141;-77
2022/03/11 02:27:43;;;;;;;2.72;1.90;;;;;;;;;;5012437;28;20400;-77
2022/03/11 02:30:11;;;;;;;2.72;1.58;;;;;;;;;;4996620;28;20038;-77
2022/03/11 02:32:37;;;;;;;2.60;1.67;;;;;;;;;;5013619;28;20065;-77
2022/03/11 02:35:02;;;;;;;3.42;1.80;;;;;;;;;;5007062;28;20497;-77
2022/03/11 02:37:27;;;;;;;2.80;1.70;;;;;;;;;;4995620;28;20567;-77
2022/03/11 02:39:55;;;;;;;2.47;1.38;;;;;;;;;;4995319;28;20048;-77
2022/03/11 02:42:21;;;;;;;2.97;1.55;;;;;;;;;;4996092;28;20041;-77
2022/03/11 02:44:47;;;;;;;3.03;1.75;;;;;;;;;;4995771;28;20034;-77
2022/03/11 02:47:12;;;;;;;2.75;1.83;;;;;;;;;;5011474;28;20048;-77
2022/03/11 02:49:37;;;;;;;3.05;1.83;;;;;;;;;;4995100;28;20500;-78
2022/03/11 02:52:03;;;;;;;2.80;1.77;;;;;;;;;;5012384;28;20038;-77
2022/03/11 02:54:29;;;;;;;2.55;1.50;;;;;;;;;;4995574;28;20109;-77
2022/03/11 02:56:54;;;;;;;2.65;1.65;;;;;;;;;;4993395;28;20052;-77
2022/03/11 02:59:21;;;;;;;2.90;1.85;;;;;;;;;;5008718;28;20497;-77
2022/03/11 03:01:46;;;;;;;2.95;1.77;;;;;;;;;;5008207;28;20073;-77
2022/03/11 03:04:12;;;;;;;2.17;1.52;;;;;;;;;;4992082;28;20049;-77
2022/03/11 03:06:37;;;;;;;2.53;1.60;;;;;;;;;;4992333;28;20035;-77
2022/03/11 03:09:03;;;;;;;3.20;1.63;;;;;;;;;;4992238;28;20084;-77
2022/03/11 03:11:28;;;;;;;3.20;1.77;;;;;;;;;;5008346;28;20042;-77
2022/03/11 03:13:53;;;;;;;3.10;1.95;;;;;;;;;;4998595;28;20508;-77
2022/03/11 03:16:19;;;;;;;3.05;1.85;;;;;;;;;;5010717;28;20046;-77
2022/03/11 03:18:44;;;;;;;2.78;1.50;;;;;;;;;;5011755;28;20034;-77
2022/03/11 03:21:10;;;;;;;2.65;1.60;;;;;;;;;;5028074;28;20034;-77
2022/03/11 03:23:35;;;;;;;2.38;1.55;;;;;;;;;;5010348;28;20414;-77
2022/03/11 03:26:01;;;;;;;3.30;1.63;;;;;;;;;;5011268;28;20120;-77
2022/03/11 03:28:27;;;;;;;2.92;2.05;;;;;;;;;;4994950;28;20038;-77
2022/03/11 03:30:52;;;;;;;2.22;1.45;;;;;;;;;;5010964;28;20396;-77
2022/03/11 03:33:18;;;;;;;3.20;1.63;;;;;;;;;;5006151;28;20046;-77
2022/03/11 03:35:43;;;;;;;2.38;1.42;;;;;;;;;;5011474;28;20077;-77
2022/03/11 03:38:09;;;;;;;2.40;1.60;;;;;;;;;;4994574;28;20096;-77
2022/03/11 03:40:34;;;;;;;2.72;1.70;;;;;;;;;;4995048;28;20385;-77
2022/03/11 03:43:00;;;;;;;1.90;1.40;;;;;;;;;;4994626;28;20041;-77
2022/03/11 03:45:26;;;;;;;2.50;1.40;;;;;;;;;;4993807;28;20034;-77
2022/03/11 03:47:51;;;;;;;3.25;1.75;;;;;;;;;;5010721;28;20038;-77
2022/03/11 03:50:17;;;;;;;3.10;1.73;;;;;;;;;;5012372;28;20041;-77
2022/03/11 03:52:42;;;;;;;2.90;1.42;;;;;;;;;;5010694;28;20038;-77
2022/03/11 03:55:08;;;;;;;3.00;1.60;;;;;;;;;;4977736;28;20046;-77
2022/03/11 03:57:34;;;;;;;3.13;1.60;;;;;;;;;;4994806;28;20077;-77
2022/03/11 03:59:59;;;;;;;2.58;1.50;;;;;;;;;;5010501;28;20507;-77
2022/03/11 04:02:24;;;;;;;2.80;1.63;;;;;;;;;;5010858;28;20041;-77
2022/03/11 04:04:50;;;;;;;3.30;1.67;;;;;;;;;;5010705;28;20044;-77
2022/03/11 04:07:15;;;;;;;2.88;1.80;;;;;;;;;;5026736;28;20073;-77
2022/03/11 04:09:41;;;;;;;2.65;1.67;;;;;;;;;;5010900;28;20527;-77
2022/03/11 04:12:07;;;;;;;3.13;1.67;;;;;;;;;;5010835;28;20123;-77
2022/03/11 04:14:32;;;;;;;2.42;1.48;;;;;;;;;;5009739;28;20124;-77
2022/03/11 04:16:58;;;;;;;2.85;1.42;;;;;;;;;;4988873;28;20043;-77
2022/03/11 04:19:23;;;;;;;3.85;2.00;;;;;;;;;;5007939;28;20034;-77
2022/03/11 04:21:49;;;;;;;2.90;1.77;;;;;;;;;;5023568;28;20046;-77
2022/03/11 04:24:14;;;;;;;2.78;1.73;;;;;;;;;;4990026;28;20498;-77
2022/03/11 04:26:41;;;;;;;2.80;1.80;;;;;;;;;;4994647;28;20048;-77
2022/03/11 04:29:07;;;;;;;2.58;1.45;;;;;;;;;;4994119;28;20101;-77
2022/03/11 04:31:32;;;;;;;2.45;1.45;;;;;;;;;;4994194;28;20163;-77
2022/03/11 04:33:57;;;;;;;2.33;1.52;;;;;;;;;;5011392;28;20489;-77
2022/03/11 04:36:23;;;;;;;4.13;1.30;;;;;;;;;;4993856;28;20053;-77
2022/03/11 04:38:48;;;;;;;3.22;1.80;;;;;;;;;;4994204;28;20046;-77
2022/03/11 04:41:14;;;;;;;2.92;1.90;;;;;;;;;;5010579;28;20085;-77
2022/03/11 04:43:42;;;;;;;2.72;1.48;;;;;;;;;;4993653;28;20823;-77
2022/03/11 04:46:08;;;;;;;3.47;1.83;;;;;;;;;;5026134;28;20045;-77
2022/03/11 04:48:33;;;;;;;3.25;1.80;;;;;;;;;;4994273;28;20034;-77
2022/03/11 04:50:58;;;;;;;2.67;1.48;;;;;;;;;;5026709;28;20040;-77
2022/03/11 04:53:24;;;;;;;2.97;1.70;;;;;;;;;;5010256;28;20049;-77
2022/03/11 04:55:49;;;;;;;3.15;1.58;;;;;;;;;;5010314;28;20049;-77
2022/03/11 04:58:14;;;;;;;3.90;2.33;;;;;;;;;;5010351;28;20046;-77
2022/03/11 05:00:40;;;;;;;3.40;1.95;;;;;;;;;;5026550;28;20041;-77
2022/03/11 05:03:05;;;;;;;5.43;1.80;;;;;;;;;;4998515;28;20046;-77
2022/03/11 05:05:31;;;;;;;2.45;1.42;;;;;;;;;;5014950;28;20045;-77
2022/03/11 05:07:56;;;;;;;2.97;1.80;;;;;;;;;;5013323;28;20103;-77
2022/03/11 05:10:21;;;;;;;2.42;1.42;;;;;;;;;;4997576;28;20050;-77
2022/03/11 05:12:47;;;;;;;3.65;2.15;;;;;;;;;;5022108;28;20042;-77
2022/03/11 05:15:12;;;;;;;3.80;1.80;;;;;;;;;;4994084;28;20042;-77
2022/03/11 05:17:38;;;;;;;2.42;1.45;;;;;;;;;;5013225;28;20061;-77
2022/03/11 05:20:04;;;;;;;2.67;1.52;;;;;;;;;;4992859;28;20554;-77
2022/03/11 05:22:29;;;;;;;2.47;1.77;;;;;;;;;;4997338;28;20069;-77
2022/03/11 05:24:55;;;;;;;2.17;1.42;;;;;;;;;;4997602;28;20053;-77
2022/03/11 05:27:20;;;;;;;2.92;1.83;;;;;;;;;;4997096;28;20092;-77
2022/03/11 05:29:45;;;;;;;2.42;1.40;;;;;;;;;;4996694;28;20042;-77
2022/03/11 05:32:13;;;;;;;3.03;1.60;;;;;;;;;;4997291;28;20544;-77
2022/03/11 05:34:39;;;;;;;2.60;1.90;;;;;;;;;;4997617;28;20571;-77
2022/03/11 05:37:05;;;;;;;3.70;2.20;;;;;;;;;;5013487;28;20515;-77
2022/03/11 05:39:31;;;;;;;2.88;1.85;;;;;;;;;;5012962;28;20124;-77
2022/03/11 05:41:57;;;;;;;2.15;1.33;;;;;;;;;;5029681;28;20121;-77
2022/03/11 05:44:23;;;;;;;2.70;1.55;;;;;;;;;;4996765;28;20076;-77
2022/03/11 05:46:48;;;;;;;3.55;1.90;;;;;;;;;;4997523;28;20042;-77
2022/03/11 05:49:14;;;;;;;2.38;1.58;;;;;;;;;;5029793;28;20030;-77
2022/03/11 05:51:39;;;;;;;3.33;1.65;;;;;;;;;;4997140;28;20041;-77
2022/03/11 05:54:05;;;;;;;2.95;1.58;;;;;;;;;;4997361;28;20056;-77
2022/03/11 05:56:30;;;;;;;2.80;1.55;;;;;;;;;;4996590;28;20412;-77
2022/03/11 05:58:56;;;;;;;2.90;1.83;;;;;;;;;;5010077;28;20035;-77
2022/03/11 06:01:21;;;;;;;3.10;1.85;;;;;;;;;;4995969;28;20057;-77
2022/03/11 06:03:47;;;;;;;3.47;1.98;;;;;;;;;;4996702;28;20049;-77
2022/03/11 06:06:13;;;;;;;3.78;2.30;;;;;;;;;;4996440;28;20501;-77
2022/03/11 06:08:39;;;;;;;3.20;1.95;;;;;;;;;;5013270;28;20061;-77
2022/03/11 06:11:05;;;;;;;2.70;1.60;;;;;;;;;;5028453;28;20484;-77
2022/03/11 06:13:30;;;;;;;2.50;1.60;;;;;;;;;;4996563;28;20037;-78
2022/03/11 06:15:55;;;;;;;4.15;2.22;;;;;;;;;;5011301;28;20554;-78
2022/03/11 06:18:21;;;;;;;2.60;1.73;;;;;;;;;;5012489;28;20088;-77
2022/03/11 06:20:46;;;;;;;2.92;1.90;;;;;;;;;;4999860;28;20048;-78
2022/03/11 06:23:13;;;;;;;2.80;1.70;;;;;;;;;;4999685;28;20030;-78
2022/03/11 06:25:38;;;;;;;2.78;1.73;;;;;;;;;;4996174;28;20034;-78
2022/03/11 06:28:04;;;;;;;3.58;1.75;;;;;;;;;;4996144;28;20041;-78
2022/03/11 06:30:29;;;;;;;3.63;2.38;;;;;;;;;;5012238;28;20480;-78
2022/03/11 06:32:55;;;;;;;10.07;2.47;;;;;;;;;;5029214;28;20026;-78
2022/03/11 06:35:20;;;;;;;2.55;1.42;;;;;;;;;;5012217;28;20042;-77
2022/03/11 06:37:47;;;;;;;4.35;1.92;;;;;;;;;;4992884;28;20031;-77
2022/03/11 06:40:13;;;;;;;5.13;2.10;;;;;;;;;;4995984;28;20047;-78
2022/03/11 06:42:42;;;;;;;4.60;2.00;;;;;;;;;;4996326;28;20456;-78
2022/03/11 06:45:08;;;;;;;7.28;2.20;;;;;;;;;;4995955;28;20038;-78
2022/03/11 06:47:34;;;;;;;4.97;2.05;;;;;;;;;;4995080;28;20041;-78
2022/03/11 06:49:59;;;;;;;6.60;2.72;;;;;;;;;;4994892;28;20050;-78
2022/03/11 06:52:24;;;;;;;5.43;1.90;;;;;;;;;;4995777;28;20088;-78
2022/03/11 06:54:50;;;;;;;7.40;2.33;;;;;;;;;;5012147;28;20041;-78
2022/03/11 06:57:17;;;;;;;6.95;2.70;;;;;;;;;;4995357;28;20033;-77
2022/03/11 06:59:46;;;;;;;8.70;2.67;;;;;;;;;;4983142;28;20107;-77
2022/03/11 07:02:11;;;;;;;9.10;3.10;;;;;;;;;;4993892;28;20042;-77
2022/03/11 07:04:36;;;;;;;7.57;2.13;;;;;;;;;;4994175;28;20389;-77
2022/03/11 07:07:03;;;;;;;7.68;1.85;;;;;;;;;;4995156;28;20038;-77
2022/03/11 07:09:28;;;;;;;5.65;2.50;;;;;;;;;;4994901;28;20041;-77
2022/03/11 07:11:57;;;;;;;5.65;2.60;;;;;;;;;;5011670;28;20131;-76
2022/03/11 07:14:26;;;;;;;6.25;3.00;;;;;;;;;;5011995;28;20069;-76
2022/03/11 07:16:52;;;;;;;9.15;2.65;;;;;;;;;;4996041;28;20112;-77
2022/03/11 07:19:21;;;;;;;8.65;3.63;;;;;;;;;;4995373;28;20124;-77
2022/03/11 07:21:46;;;;;;;14.98;3.75;;;;;;;;;;4994752;28;20049;-77
2022/03/11 07:24:11;;;;;;;8.20;3.15;;;;;;;;;;5010827;28;20041;-77
2022/03/11 07:26:37;;;;;;;7.47;3.00;;;;;;;;;;4995033;28;20038;-77
2022/03/11 07:29:02;;;;;;;8.07;3.10;;;;;;;;;;5027772;28;20030;-77
2022/03/11 07:31:28;;;;;;;8.10;3.05;;;;;;;;;;5011110;28;20033;-77
2022/03/11 07:33:54;;;;;;;8.65;3.47;;;;;;;;;;4994950;28;20408;-78
2022/03/11 07:36:20;;;;;;;9.25;4.32;;;;;;;;;;4994510;28;20450;-79
2022/03/11 07:38:45;;;;;;;7.65;3.00;;;;;;;;;;5011447;28;20064;-79
2022/03/11 07:41:14;;;;;;;6.25;3.92;;;;;;;;;;4994777;28;20038;-79
2022/03/11 07:43:44;;;;;;;5.55;3.08;;;;;;;;;;4994667;28;20041;-79
2022/03/11 07:46:11;;;;;;;8.52;3.22;;;;;;;;;;5023171;28;20049;-80
2022/03/11 07:48:36;;;;;;;7.10;3.75;;;;;;;;;;5024241;28;20037;-79
2022/03/11 07:51:02;;;;;;;5.82;3.00;;;;;;;;;;5007571;28;20104;-79
2022/03/11 07:53:27;;;;;;;5.13;2.95;;;;;;;;;;4974989;28;20125;-78
2022/03/11 07:55:53;;;;;;;7.18;2.75;;;;;;;;;;5010856;28;20116;-78
2022/03/11 07:58:21;;;;;;;5.75;3.03;;;;;;;;;;5011007;28;20045;-78
2022/03/11 08:00:48;;;;;;;6.70;3.33;;;;;;;;;;5011312;28;20088;-78
2022/03/11 08:03:14;;;;;;;6.03;3.03;;;;;;;;;;5011202;28;20045;-79
2022/03/11 08:05:39;;;;;;;5.82;3.53;;;;;;;;;;4993899;28;20526;-79
2022/03/11 08:08:05;;;;;;;8.15;3.58;;;;;;;;;;4994029;28;20034;-79
2022/03/11 08:10:33;;;;;;;8.02;3.25;;;;;;;;;;4994437;28;20057;-79
2022/03/11 08:12:59;;;;;;;6.68;3.15;;;;;;;;;;5009920;28;20037;-78
2022/03/11 08:15:25;;;;;;;6.40;3.47;;;;;;;;;;4994201;28;20042;-79
2022/03/11 08:17:51;;;;;;;6.97;3.70;;;;;;;;;;4994136;28;20034;-79
2022/03/11 08:20:16;;;;;;;6.35;3.63;;;;;;;;;;5010881;28;20439;-79
2022/03/11 08:22:42;;;;;;;4.57;3.10;;;;;;;;;;5009295;28;20156;-78
2022/03/11 08:25:10;;;;;;;6.72;3.10;;;;;;;;;;5007013;28;20042;-79
2022/03/11 08:27:35;;;;;;;6.47;3.22;;;;;;;;;;5007033;28;20047;-79
2022/03/11 08:30:01;;;;;;;5.05;2.97;;;;;;;;;;4991068;28;20440;-79
2022/03/11 08:32:26;;;;;;;5.90;3.17;;;;;;;;;;4991045;28;20038;-79
2022/03/11 08:34:53;;;;;;;6.57;3.03;;;;;;;;;;4993091;28;20405;-79
2022/03/11 08:37:20;;;;;;;5.65;2.80;;;;;;;;;;5009653;28;20100;-79
2022/03/11 08:39:45;;;;;;;4.45;2.83;;;;;;;;;;4997241;28;20049;-79
2022/03/11 08:42:11;;;;;;;7.30;2.92;;;;;;;;;;4998486;28;20034;-79
2022/03/11 08:44:36;;;;;;;4.15;2.70;;;;;;;;;;4996990;28;20037;-79
2022/03/11 08:47:02;;;;;;;6.55;3.08;;;;;;;;;;4997775;28;20133;-79
2022/03/11 08:49:27;;;;;;;4.10;2.40;;;;;;;;;;4981602;28;20092;-79
2022/03/11 08:51:53;;;;;;;5.18;2.60;;;;;;;;;;4998097;28;20046;-78
2022/03/11 08:54:19;;;;;;;4.45;2.50;;;;;;;;;;5025965;28;20038;-79
2022/03/11 08:56:45;;;;;;;4.90;2.15;;;;;;;;;;5014425;28;20038;-79
2022/03/11 08:59:12;;;;;;;6.05;2.58;;;;;;;;;;5010679;28;20045;-79
2022/03/11 09:01:37;;;;;;;4.53;2.85;;;;;;;;;;5013830;28;20046;-79
2022/03/11 09:04:03;;;;;;;4.90;2.60;;;;;;;;;;4997539;28;20088;-78
2022/03/11 09:06:29;;;;;;;4.95;2.47;;;;;;;;;;4997881;28;20037;-78
2022/03/11 09:08:54;;;;;;;5.20;2.78;;;;;;;;;;4998129;28;20173;-79
2022/03/11 09:11:20;;;;;;;4.25;2.47;;;;;;;;;;4997532;28;20113;-79
2022/03/11 09:13:47;;;;;;;5.40;2.35;;;;;;;;;;5030362;28;20474;-79
2022/03/11 09:16:13;;;;;;;4.13;2.05;;;;;;;;;;4997651;28;20505;-78
2022/03/11 09:18:38;;;;;;;4.47;2.03;;;;;;;;;;4994206;28;20038;-78
2022/03/11 09:21:04;;;;;;;4.70;2.20;;;;;;;;;;5010386;28;20459;-79
2022/03/11 09:23:29;;;;;;;4.68;2.45;;;;;;;;;;5013170;28;20030;-79
2022/03/11 09:25:55;;;;;;;4.30;2.13;;;;;;;;;;4997665;28;20065;-78
2022/03/11 09:28:20;;;;;;;3.00;1.80;;;;;;;;;;5013446;28;20400;-79
2022/03/11 09:30:46;;;;;;;3.85;1.98;;;;;;;;;;5012999;28;20500;-79
2022/03/11 09:33:11;;;;;;;2.83;1.90;;;;;;;;;;4996439;28;20042;-79
2022/03/11 09:35:37;;;;;;;4.70;2.28;;;;;;;;;;4996869;28;20046;-79
2022/03/11 09:38:02;;;;;;;3.65;2.00;;;;;;;;;;4997204;28;20112;-79
2022/03/11 09:40:27;;;;;;;4.05;1.70;;;;;;;;;;4997222;28;20092;-79
2022/03/11 09:42:53;;;;;;;6.43;2.35;;;;;;;;;;5012984;28;20046;-79
2022/03/11 09:45:19;;;;;;;3.45;1.95;;;;;;;;;;5029799;28;20096;-78
2022/03/11 09:47:45;;;;;;;3.60;2.10;;;;;;;;;;4996602;28;20038;-79
2022/03/11 09:50:10;;;;;;;2.85;1.90;;;;;;;;;;5029273;28;20088;-79
2022/03/11 09:52:36;;;;;;;3.45;2.13;;;;;;;;;;4996324;28;20089;-79
2022/03/11 09:55:01;;;;;;;2.50;1.70;;;;;;;;;;4993458;28;20046;-79
2022/03/11 09:57:27;;;;;;;4.28;1.65;;;;;;;;;;5013018;28;20433;-78
2022/03/11 09:59:53;;;;;;;2.97;1.75;;;;;;;;;;5014250;28;20176;-78
2022/03/11 10:02:18;;;;;;;4.97;1.95;;;;;;;;;;5011062;28;20514;-78
2022/03/11 10:04:52;;;;;;;2.85;1.80;;;;;;;;;;5029157;28;20034;-79
2022/03/11 10:07:25;;;;;;;4.32;2.30;;;;;;;;;;4996931;28;20076;-78
2022/03/11 10:09:50;;;;;;;5.38;2.17;;;;;;;;;;5007164;28;20046;-78
2022/03/11 10:12:34;;;;;;;3.97;2.10;;;;;;;;;;5009817;28;20117;-78
2022/03/11 10:15:04;;;;;;;4.05;1.75;;;;;;;;;;5009368;28;20493;-79
2022/03/11 10:17:40;;;;;;;3.10;1.77;;;;;;;;;;5008727;28;20030;-79
2022/03/11 10:20:10;;;;;;;12.85;2.28;;;;;;;;;;4996411;28;20037;-79
2022/03/11 10:22:36;;;;;;;3.92;2.00;;;;;;;;;;5012530;28;20038;-79
2022/03/11 10:25:13;;;;;;;4.25;2.00;;;;;;;;;;4996641;28;20090;-79
2022/03/11 10:27:58;;;;;;;4.05;1.60;;;;;;;;;;5012108;28;20113;-79
2022/03/11 10:30:24;;;;;;;4.35;1.60;;;;;;;;;;4996679;28;20034;-78
2022/03/11 10:32:57;;;;;;;2.88;1.77;;;;;;;;;;4980085;28;20040;-79
2022/03/11 10:35:49;;;;;;;;;;;;;;;;;;5012948;28;20034;-79
2022/03/11 10:38:19;;;;;;;3.67;2.00;;;;;;;;;;5010940;28;19924;-78
2022/03/11 10:40:51;;;;;;;2.88;1.40;;;;;;;;;;4996755;28;20069;-78
2022/03/11 10:43:25;;;;;;;3.72;1.85;;;;;;;;;;5012388;28;20492;-79
2022/03/11 10:46:06;;;;;;;5.15;2.22;;;;;;;;;;5011752;28;20044;-78
2022/03/11 10:48:46;;;;;;;5.05;2.65;;;;;;;;;;4985836;28;20081;-79
2022/03/11 10:51:19;;;;;;;5.88;2.70;;;;;;;;;;4994027;28;20787;-78
2022/03/11 10:53:47;;;;;;;4.95;2.80;;;;;;;;;;4992207;28;20042;-78
2022/03/11 10:56:12;;;;;;;4.95;2.95;;;;;;;;;;5006044;28;20046;-78
2022/03/11 10:58:38;;;;;;;3.42;2.13;;;;;;;;;;4992345;28;20031;-79
2022/03/11 11:01:03;;;;;;;6.50;2.80;;;;;;;;;;4991823;28;20038;-78
2022/03/11 11:03:29;;;;;;;5.50;3.25;;;;;;;;;;4993914;28;20038;-79
2022/03/11 11:05:55;;;;;;;3.28;2.30;;;;;;;;;;5008343;28;20046;-78
2022/03/11 11:08:21;;;;;;;3.78;2.22;;;;;;;;;;4992175;28;20109;-79
2022/03/11 11:10:46;;;;;;;4.57;2.25;;;;;;;;;;5025061;28;20092;-79
2022/03/11 11:13:12;;;;;;;6.15;2.55;;;;;;;;;;4983656;28;20053;-78
2022/03/11 11:15:38;;;;;;;4.13;2.35;;;;;;;;;;4991759;28;20042;-79
2022/03/11 11:18:11;;;;;;;4.30;2.50;;;;;;;;;;4992351;28;20077;-79
2022/03/11 11:20:41;;;;;;;3.88;2.28;;;;;;;;;;4976707;28;20052;-79
2022/03/11 11:23:07;;;;;;;3.70;1.83;;;;;;;;;;5002074;28;20043;-78
2022/03/11 11:25:35;;;;;;;4.63;2.28;;;;;;;;;;4995176;28;20046;-78
2022/03/11 11:28:14;;;;;;;4.55;1.88;;;;;;;;;;4992648;28;20038;-79
2022/03/11 11:30:40;;;;;;;3.80;1.83;;;;;;;;;;4994682;28;20048;-79
2022/03/11 11:33:05;;;;;;;5.20;2.15;;;;;;;;;;5008624;28;20037;-78
2022/03/11 11:35:32;;;;;;;4.68;2.08;;;;;;;;;;4993754;28;20050;-78
2022/03/11 11:37:59;;;;;;;3.70;1.95;;;;;;;;;;4973586;28;20113;-78
2022/03/11 11:40:38;;;;;;;3.97;2.00;;;;;;;;;;4996427;28;20050;-78
2022/03/11 11:43:13;;;;;;;4.55;2.08;;;;;;;;;;4998357;28;20034;-78
2022/03/11 11:45:51;;;;;;;3.88;1.63;;;;;;;;;;5012012;28;20084;-78
2022/03/11 11:48:32;;;;;;;6.47;2.67;;;;;;;;;;5004241;28;20049;-78
2022/03/11 11:51:09;;;;;;;4.10;2.00;;;;;;;;;;5011817;28;20038;-78
2022/03/11 11:53:37;;;;;;;4.45;2.30;;;;;;;;;;4994414;28;20130;-78
2022/03/11 11:56:30;;;;;;;3.85;2.40;;;;;;;;;;5010778;28;20045;-78
2022/03/11 11:58:57;;;;;;;6.75;2.30;;;;;;;;;;5027126;28;20115;-78
2022/03/11 12:01:42;;;;;;;5.07;2.08;;;;;;;;;;5010653;28;20515;-78
2022/03/11 12:04:20;;;;;;;4.88;2.22;;;;;;;;;;5010798;28;20083;-78
2022/03/11 12:07:12;;;;;;;5.78;2.22;;;;;;;;;;5025250;28;21864;-78
2022/03/11 12:09:38;;;;;;;4.18;2.38;;;;;;;;;;5009992;28;20452;-78
2022/03/11 12:12:29;;;;;;;6.47;3.13;;;;;;;;;;5011035;28;20038;-78
2022/03/11 12:14:57;;;;;;;4.32;2.30;;;;;;;;;;4982792;28;20103;-78
2022/03/11 12:18:08;;;;;;;4.65;2.55;;;;;;;;;;5011208;28;20121;-78
2022/03/11 12:20:33;;;;;;;3.95;2.13;;;;;;;;;;5011397;28;20099;-78
2022/03/11 12:23:06;;;;;;;4.40;2.13;;;;;;;;;;5008588;28;20034;-78
2022/03/11 12:25:41;;;;;;;5.53;2.10;;;;;;;;;;5003162;28;20042;-78
2022/03/11 12:28:09;;;;;;;3.78;2.30;;;;;;;;;;5007218;28;20045;-78
2022/03/11 12:30:39;;;;;;;4.90;2.00;;;;;;;;;;4993993;28;20511;-78
2022/03/11 12:33:09;;;;;;;3.88;2.13;;;;;;;;;;4993693;28;20064;-78
2022/03/11 12:35:35;;;;;;;4.18;2.78;;;;;;;;;;4994008;28;20042;-78
2022/03/11 12:38:00;;;;;;;5.97;2.20;;;;;;;;;;5009713;28;20034;-78
2022/03/11 12:40:26;;;;;;;3.67;1.95;;;;;;;;;;4994689;28;20117;-78
2022/03/11 12:42:58;;;;;;;5.80;2.35;;;;;;;;;;4993273;28;20049;-78
2022/03/11 12:45:41;;;;;;;4.35;2.00;;;;;;;;;;5010104;28;20038;-78
2022/03/11 12:48:08;;;;;;;3.53;1.65;;;;;;;;;;5009988;28;20500;-78
2022/03/11 12:50:34;;;;;;;13.00;3.30;;;;;;;;;;5009822;28;20030;-78
2022/03/11 12:53:00;;;;;;;5.65;2.10;;;;;;;;;;4978534;28;20049;-78
2022/03/11 12:55:27;;;;;;;3.42;2.00;;;;;;;;;;5021020;28;20038;-78
2022/03/11 12:57:53;;;;;;;3.92;2.10;;;;;;;;;;5008510;28;20053;-78
2022/03/11 13:00:24;;;;;;;3.78;1.95;;;;;;;;;;4986713;28;20037;-78
2022/03/11 13:02:50;;;;;;;3.92;2.45;;;;;;;;;;4989625;28;20038;-78
2022/03/11 13:05:19;;;;;;;4.65;2.20;;;;;;;;;;4994518;28;20049;-78
2022/03/11 13:07:45;;;;;;;4.15;1.92;;;;;;;;;;5009676;28;20504;-78
2022/03/11 13:10:28;;;;;;;4.47;2.33;;;;;;;;;;4991329;28;20053;-78
2022/03/11 13:12:55;;;;;;;4.25;1.95;;;;;;;;;;4991468;28;20077;-78
2022/03/11 13:15:26;;;;;;;3.72;1.77;;;;;;;;;;5006880;28;20061;-78
2022/03/11 13:17:58;;;;;;;3.15;1.90;;;;;;;;;;5009150;28;20077;-78
2022/03/11 13:20:45;;;;;;;3.88;2.10;;;;;;;;;;5010105;28;20091;-78
2022/03/11 13:23:19;;;;;;;3.67;1.90;;;;;;;;;;5025680;28;20049;-78
2022/03/11 13:25:48;;;;;;;3.80;2.00;;;;;;;;;;5028380;28;20395;-78
2022/03/11 13:28:22;;;;;;;4.65;2.03;;;;;;;;;;4997616;28;20068;-78
2022/03/11 13:30:47;;;;;;;2.95;1.90;;;;;;;;;;4996777;28;20034;-78
2022/03/11 13:33:24;;;;;;;4.80;2.35;;;;;;;;;;4996810;28;20038;-78
2022/03/11 13:36:11;;;;;;;4.78;2.00;;;;;;;;;;4982546;28;20034;-78
2022/03/11 13:38:38;;;;;;;4.03;2.03;;;;;;;;;;5006071;28;20065;-78
2022/03/11 13:41:04;;;;;;;3.72;2.00;;;;;;;;;;5007291;28;20034;-78
2022/03/11 13:43:30;;;;;;;4.15;2.28;;;;;;;;;;5029285;28;20041;-78
2022/03/11 13:45:55;;;;;;;4.13;2.30;;;;;;;;;;4996671;28;20053;-78
2022/03/11 13:48:36;;;;;;;4.18;2.22;;;;;;;;;;5012271;28;20548;-78
2022/03/11 13:51:04;;;;;;;4.90;3.00;;;;;;;;;;4991935;28;20035;-78
2022/03/11 13:53:30;;;;;;;5.32;2.42;;;;;;;;;;5026235;28;20031;-78
2022/03/11 13:55:59;;;;;;;4.88;2.83;;;;;;;;;;5026701;28;20042;-78
2022/03/11 13:58:25;;;;;;;5.03;1.80;;;;;;;;;;5013147;28;20022;-78
2022/03/11 14:00:51;;;;;;;4.60;2.03;;;;;;;;;;5012078;28;20058;-78
2022/03/11 14:03:18;;;;;;;4.53;1.95;;;;;;;;;;5029484;28;20168;-78
2022/03/11 14:05:44;;;;;;;4.68;2.20;;;;;;;;;;5012445;28;20050;-78
2022/03/11 14:08:10;;;;;;;4.78;2.38;;;;;;;;;;5029008;28;20037;-78
2022/03/11 14:10:43;;;;;;;2.70;1.83;;;;;;;;;;5027914;28;20046;-78
2022/03/11 14:13:11;;;;;;;3.17;1.88;;;;;;;;;;4994583;28;20043;-78
2022/03/11 14:15:38;;;;;;;3.35;1.65;;;;;;;;;;5009952;28;20503;-78
2022/03/11 14:18:03;;;;;;;3.50;1.50;;;;;;;;;;4977175;28;20397;-78
2022/03/11 14:20:31;;;;;;;3.00;2.03;;;;;;;;;;5009830;28;20034;-78
2022/03/11 14:22:56;;;;;;;3.10;1.98;;;;;;;;;;4997476;28;20044;-78
2022/03/11 14:25:22;;;;;;;3.78;2.03;;;;;;;;;;4996410;28;20038;-78
2022/03/11 14:27:47;;;;;;;3.85;2.10;;;;;;;;;;5013796;28;20092;-78
2022/03/11 14:30:13;;;;;;;2.72;1.70;;;;;;;;;;4996623;28;20060;-78
2022/03/11 14:32:38;;;;;;;2.90;1.58;;;;;;;;;;5012550;28;20404;-78
2022/03/11 14:35:04;;;;;;;3.50;1.75;;;;;;;;;;5012266;28;20049;-78
2022/03/11 14:37:29;;;;;;;3.55;1.88;;;;;;;;;;5010824;28;20046;-78
2022/03/11 14:39:55;;;;;;;2.95;2.03;;;;;;;;;;4995796;28;20091;-78
2022/03/11 14:42:20;;;;;;;4.78;1.95;;;;;;;;;;4995768;28;20108;-78
2022/03/11 14:44:45;;;;;;;3.60;2.13;;;;;;;;;;5012282;28;20045;-78